Mary Lynn — WDF4973 — position and weather

sailwx.info

Track history (hours):
 
Tides and Currents Weather Stations Pressure Air Temp Water Temp Dewpoint Dewpoint Depression Visibility Wind Speed Wind Dir Waves Ship Positions

Mary Lynn

Owner: MO River Towing, LLC, Brunswick, MO. More information available from US FCC via Universal Licensing System and Coast Guard Vessel Documentation Center.

Last reported at 2017-Sep-16 03:18 UTC. Time now 2017-Sep-19 20:50 UTC.
Position N 38°50' W 090°26'.

Length 50 m.

Type: Towing. MMSI: 367457930.

Date/timePositionNaut miles runAvg speedWind from/ knotsBaromVisibWave heightAir tempDewpointWater temp
2017-Sep-16 03:18N 38°50' W 090°26'2 4.4
2017-Sep-16 02:45N 38°49' W 090°23'2 4.0
2017-Sep-16 02:14N 38°50' W 090°21'1 4.6
2017-Sep-16 02:00N 38°51' W 090°20'2 4.2
2017-Sep-16 01:30N 38°53' W 090°20'2 4.1
2017-Sep-16 00:56N 38°53' W 090°17'2 4.0
2017-Sep-16 00:21N 38°51' W 090°15'  
2017-Sep-11 23:50N 38°54' W 090°19'2 5.9
2017-Sep-11 23:28N 38°52' W 090°20'  
Track history (hours):
 
Tides and Currents Weather Stations Pressure Air Temp Water Temp Dewpoint Dewpoint Depression Visibility Wind Speed Wind Dir Waves Ship Positions

Mary Lynn

Owner: MO River Towing, LLC, Brunswick, MO. More information available from US FCC via Universal Licensing System and Coast Guard Vessel Documentation Center.

Last reported at 2017-Sep-16 03:18 UTC. Time now 2017-Sep-19 20:50 UTC.
Position N 38°50' W 090°26'.

Length 50 m.

Type: Towing. MMSI: 367457930.

Date/timePositionNaut miles runAvg speedWind from/ knotsBaromVisibWave heightAir tempDewpointWater temp
2017-Sep-16 03:18N 38°50' W 090°26'2 4.4
2017-Sep-16 02:45N 38°49' W 090°23'2 4.0
2017-Sep-16 02:14N 38°50' W 090°21'1 4.6
2017-Sep-16 02:00N 38°51' W 090°20'2 4.2
2017-Sep-16 01:30N 38°53' W 090°20'2 4.1
2017-Sep-16 00:56N 38°53' W 090°17'2 4.0
2017-Sep-16 00:21N 38°51' W 090°15'  
2017-Sep-11 23:50N 38°54' W 090°19'2 5.9
2017-Sep-11 23:28N 38°52' W 090°20'  

Dump ship's entire track history